Terminal Aerodrome Forecast
Issued by NWS

Home | Current Version | Previous Version | Text Only | Print | Product List | Glossary On
Versions: 1 2 3 4 5 6 7 8 9 10 11 12 13 14
942
FTUS45 KRIW 261657 AAA
TAFCPR
TAF AMD
KCPR 261657Z 2617/2712 VRB04KT P6SM SCT015 BKN028
      TEMPO 2617/2619 BKN015
     FM261900 34006KT P6SM SCT030 BKN045
     FM270100 22006KT P6SM FEW050 SCT150=

USA.gov is the U.S. government's official web portal to all federal, state and local government web resources and services.